Neptune Beach, Florida
Current Conditions -  °F | °C
As of 8:52 AM on Thursday 30 Oct 2014 (Local Time) from KNRB Reporting Station
Few Clouds Few Clouds  
Wind Chill: 68°   Ceiling: Unl
Heat Index: 68°   Visibility: 10mi
Dew Point: 64°   Wind: 6mph
Humidity: 87%   Direction: NA
Pressure: 30"   Gusts: NA
Location:  30.32°N, 81.41°W
Report Text: KNRB 301252Z VRB05KT 10SM FEW010 20/18 A3000 RMK AO2 SLP156 T02000178
Loading
Personal Weather Stations






























Interactive Weather Map
Tropical Storm Tracking
New forecast layout! Learn more

10-Day Weather Forecast

Advertisements
Track Severe Weather on mobile